Time;durP1;ratioP1;P1;durP2;ratioP2;P2;SDS_P1;SDS_P2;PMS_P1;PMS_P2;Temp;Humidity;BMP_temperature;BMP_pressure;BME280_temperature;BME280_humidity;BME280_pressure;Samples;Min_cycle;Max_cycle;Signal;HPM_P1;HPM_P2
2023/01/30 00:01:45;;;;;;;21.13;10.20;;;4.00;99.90;;;;;;5072518;28;20207;-44
2023/01/30 00:04:12;;;;;;;21.33;10.73;;;4.00;99.90;;;;;;5062117;28;20223;-43
2023/01/30 00:06:38;;;;;;;20.73;9.93;;;4.00;99.90;;;;;;5052424;28;20608;-44
2023/01/30 00:09:04;;;;;;;19.65;10.98;;;4.00;99.90;;;;;;5052209;28;20181;-44
2023/01/30 00:11:32;;;;;;;21.00;11.77;;;4.00;99.90;;;;;;5051866;28;20258;-43
2023/01/30 00:13:57;;;;;;;17.00;8.82;;;4.00;99.90;;;;;;5052429;28;20174;-44
2023/01/30 00:16:23;;;;;;;15.73;8.50;;;4.10;99.90;;;;;;5052685;28;20171;-44
2023/01/30 00:18:49;;;;;;;21.85;11.98;;;4.00;99.90;;;;;;5052184;28;20508;-44
2023/01/30 00:21:15;;;;;;;23.70;12.02;;;4.10;99.90;;;;;;5050856;28;20171;-44
2023/01/30 00:23:42;;;;;;;20.88;11.05;;;4.20;99.90;;;;;;5063618;28;20260;-44
2023/01/30 00:26:08;;;;;;;22.60;12.80;;;4.10;99.90;;;;;;5052525;28;20192;-44
2023/01/30 00:28:35;;;;;;;17.05;9.73;;;4.10;99.90;;;;;;5051954;28;20242;-43
2023/01/30 00:31:01;;;;;;;21.55;9.65;;;4.20;99.90;;;;;;5051852;28;20214;-43
2023/01/30 00:33:27;;;;;;;18.05;9.60;;;4.10;99.90;;;;;;5069761;28;20574;-44
2023/01/30 00:35:54;;;;;;;16.83;9.55;;;4.10;99.90;;;;;;5062380;28;20182;-43
2023/01/30 00:38:20;;;;;;;20.48;11.10;;;4.20;99.90;;;;;;5051885;28;20658;-43
2023/01/30 00:40:47;;;;;;;18.40;10.52;;;4.20;99.90;;;;;;5051744;28;20182;-44
2023/01/30 00:48:47;;;;;;;13.90;8.05;;;4.20;99.90;;;;;;5051841;28;20240;-44
2023/01/30 00:51:13;;;;;;;19.02;10.63;;;4.20;99.90;;;;;;5053583;28;22090;-44
2023/01/30 00:53:38;;;;;;;17.55;10.43;;;4.30;99.90;;;;;;5071664;28;20178;-44
2023/01/30 00:56:04;;;;;;;22.90;12.07;;;4.20;99.90;;;;;;5071611;28;20168;-44
2023/01/30 00:58:30;;;;;;;17.65;10.25;;;4.20;99.90;;;;;;5071614;28;20181;-43
2023/01/30 01:00:55;;;;;;;23.52;10.88;;;4.30;99.90;;;;;;5072138;28;20166;-43
2023/01/30 01:03:21;;;;;;;25.13;11.70;;;4.20;99.90;;;;;;5071551;28;20649;-44
2023/01/30 01:05:47;;;;;;;14.55;7.88;;;4.40;99.90;;;;;;5071171;28;20210;-44
2023/01/30 01:08:13;;;;;;;17.25;10.50;;;4.30;99.90;;;;;;5071393;28;20212;-44
2023/01/30 01:10:39;;;;;;;18.50;10.55;;;4.40;99.90;;;;;;5071457;28;20170;-44
2023/01/30 01:13:05;;;;;;;15.55;9.02;;;4.30;99.90;;;;;;5071355;28;20174;-44
2023/01/30 01:15:32;;;;;;;23.75;11.18;;;4.40;99.90;;;;;;5071561;28;20178;-43
2023/01/30 01:17:58;;;;;;;16.55;8.43;;;4.40;99.90;;;;;;5071284;28;20176;-43
2023/01/30 01:20:24;;;;;;;26.67;12.50;;;4.40;99.90;;;;;;5071815;28;20166;-44
2023/01/30 01:22:54;;;;;;;20.88;10.73;;;4.40;99.90;;;;;;5055568;28;20170;-44
2023/01/30 01:25:20;;;;;;;21.85;11.80;;;4.40;99.90;;;;;;5071026;28;20186;-44
2023/01/30 01:27:46;;;;;;;18.38;9.65;;;4.30;99.90;;;;;;5071288;28;20220;-44
2023/01/30 01:30:12;;;;;;;25.25;11.18;;;4.30;99.90;;;;;;5071197;28;20162;-44
2023/01/30 01:32:38;;;;;;;24.00;10.75;;;4.30;99.90;;;;;;5071381;28;20180;-44
2023/01/30 01:35:04;;;;;;;15.70;10.05;;;4.40;99.90;;;;;;5071110;28;20162;-44
2023/01/30 01:37:30;;;;;;;17.38;9.02;;;4.40;99.90;;;;;;5071300;28;20170;-44
2023/01/30 01:42:40;;;;;;;21.27;10.15;;;4.40;99.90;;;;;;5071074;28;20552;-44
2023/01/30 01:45:11;;;;;;;19.15;10.15;;;4.40;99.90;;;;;;5071076;28;20174;-44
2023/01/30 01:47:44;;;;;;;24.02;12.00;;;4.30;99.90;;;;;;5070990;28;20197;-43
2023/01/30 01:50:18;;;;;;;22.70;10.30;;;4.40;99.90;;;;;;5069700;28;20660;-44
2023/01/30 01:52:45;;;;;;;22.05;10.18;;;4.40;99.90;;;;;;5060401;28;20677;-44
2023/01/30 01:55:12;;;;;;;19.98;9.63;;;4.50;99.90;;;;;;5055181;28;20189;-44
2023/01/30 01:57:50;;;;;;;15.32;9.88;;;4.40;99.90;;;;;;5054939;28;20167;-44
2023/01/30 02:00:18;;;;;;;17.40;9.93;;;4.50;99.90;;;;;;5061408;28;20174;-44
2023/01/30 02:02:56;;;;;;;23.08;12.90;;;4.40;99.90;;;;;;5063878;28;20181;-44
2023/01/30 02:05:23;;;;;;;16.77;9.15;;;4.40;99.90;;;;;;5054776;28;20214;-44
2023/01/30 02:08:01;;;;;;;20.98;11.18;;;4.40;99.90;;;;;;5054850;28;20205;-44
2023/01/30 02:10:50;;;;;;;21.50;12.05;;;4.40;99.90;;;;;;5055165;28;20525;-44
2023/01/30 02:13:16;;;;;;;17.33;9.32;;;4.40;99.90;;;;;;5054767;28;20210;-44
2023/01/30 02:15:42;;;;;;;24.45;9.80;;;4.40;99.90;;;;;;5054637;28;20162;-44
2023/01/30 02:18:08;;;;;;;18.92;11.23;;;4.50;99.90;;;;;;5053311;28;20170;-44
2023/01/30 02:20:54;;;;;;;17.48;10.35;;;4.50;99.90;;;;;;5054535;28;20526;-44
2023/01/30 02:23:22;;;;;;;16.95;10.20;;;4.50;99.90;;;;;;5054651;28;20170;-44
2023/01/30 02:26:12;;;;;;;18.80;9.40;;;4.60;99.90;;;;;;5054474;28;20618;-44
2023/01/30 02:29:05;;;;;;;14.70;8.55;;;4.50;99.90;;;;;;5054423;28;20218;-44
2023/01/30 02:31:49;;;;;;;14.02;8.38;;;4.60;99.90;;;;;;5054331;28;20631;-45
2023/01/30 02:34:20;;;;;;;19.80;10.60;;;4.60;99.90;;;;;;5054445;28;20197;-44
2023/01/30 02:37:03;;;;;;;16.88;10.20;;;4.40;99.90;;;;;;5054327;28;20174;-45
2023/01/30 02:39:52;;;;;;;23.88;12.88;;;4.60;99.90;;;;;;5054450;28;20166;-44
2023/01/30 02:42:33;;;;;;;19.73;10.93;;;4.50;99.90;;;;;;5054856;28;20228;-44
2023/01/30 02:45:30;;;;;;;18.95;9.85;;;4.40;99.90;;;;;;5074026;28;20220;-44
2023/01/30 02:48:01;;;;;;;13.65;8.77;;;4.40;99.90;;;;;;5073701;28;20202;-44
2023/01/30 02:50:33;;;;;;;15.77;8.35;;;4.50;99.90;;;;;;5073831;28;20213;-44
2023/01/30 02:52:59;;;;;;;15.50;7.97;;;4.40;99.90;;;;;;5073612;28;20181;-47
2023/01/30 02:55:27;;;;;;;19.13;10.43;;;4.50;99.90;;;;;;5073955;28;20184;-45
2023/01/30 02:57:54;;;;;;;22.52;11.77;;;4.50;99.90;;;;;;5073743;28;20173;-44
2023/01/30 03:00:50;;;;;;;17.05;9.52;;;4.50;99.90;;;;;;5073701;28;20752;-44
2023/01/30 03:03:45;;;;;;;18.02;9.93;;;4.50;99.90;;;;;;5073470;28;20162;-44
2023/01/30 03:06:48;;;;;;;13.85;9.35;;;4.60;99.90;;;;;;5073634;28;20174;-44
2023/01/30 03:09:32;;;;;;;28.30;11.07;;;4.70;99.90;;;;;;5073657;28;20165;-44
2023/01/30 03:12:29;;;;;;;19.10;12.55;;;4.60;99.90;;;;;;5068404;28;20253;-44
2023/01/30 03:15:02;;;;;;;18.60;9.02;;;4.60;99.90;;;;;;5045073;28;20589;-44
2023/01/30 03:17:30;;;;;;;13.85;7.85;;;4.80;99.90;;;;;;5053148;28;20267;-44
2023/01/30 03:19:57;;;;;;;19.65;10.98;;;4.60;99.90;;;;;;5053740;28;20174;-44
2023/01/30 03:22:22;;;;;;;16.83;9.23;;;4.70;99.90;;;;;;5053776;28;20213;-44
2023/01/30 03:24:51;;;;;;;16.70;9.60;;;4.80;99.90;;;;;;5053478;28;20163;-44
2023/01/30 03:27:17;;;;;;;15.23;9.20;;;4.70;99.90;;;;;;5053188;28;20237;-44
2023/01/30 03:29:43;;;;;;;17.38;9.63;;;4.80;99.90;;;;;;5053220;28;20170;-44
2023/01/30 03:32:08;;;;;;;17.70;9.63;;;4.80;99.90;;;;;;5053252;28;20238;-44
2023/01/30 03:34:34;;;;;;;17.88;10.48;;;4.80;99.90;;;;;;5053204;28;20163;-44
2023/01/30 03:36:59;;;;;;;23.70;12.38;;;4.80;99.90;;;;;;5053139;28;20519;-44
2023/01/30 03:39:25;;;;;;;22.10;11.18;;;4.80;99.90;;;;;;5053310;28;20174;-44
2023/01/30 03:41:52;;;;;;;14.80;7.82;;;4.80;99.90;;;;;;5057658;28;20177;-44
2023/01/30 03:44:18;;;;;;;16.17;10.13;;;4.90;99.90;;;;;;5071848;28;20227;-44
2023/01/30 03:46:44;;;;;;;15.32;9.65;;;4.80;99.90;;;;;;5072862;28;20289;-44
2023/01/30 03:49:09;;;;;;;16.50;9.13;;;5.00;99.90;;;;;;5072388;28;20181;-44
2023/01/30 03:51:35;;;;;;;13.10;8.27;;;5.00;99.90;;;;;;5072606;28;20193;-44
2023/01/30 03:54:01;;;;;;;20.55;9.02;;;5.00;99.90;;;;;;5072386;28;20527;-44
2023/01/30 03:56:26;;;;;;;17.73;10.52;;;5.00;99.90;;;;;;5071988;28;20178;-44
2023/01/30 03:58:52;;;;;;;17.92;9.32;;;5.00;99.90;;;;;;5072968;28;20177;-44
2023/01/30 04:01:17;;;;;;;16.13;8.60;;;4.90;99.90;;;;;;5072487;28;20173;-44
2023/01/30 04:03:43;;;;;;;15.45;8.90;;;5.00;99.90;;;;;;5072698;28;20237;-44
2023/01/30 04:06:09;;;;;;;16.75;9.82;;;5.00;99.90;;;;;;5072366;28;20228;-44
2023/01/30 04:08:34;;;;;;;20.95;10.00;;;4.90;99.90;;;;;;5072838;28;20239;-44
2023/01/30 04:11:00;;;;;;;18.40;9.90;;;4.90;99.90;;;;;;5072413;28;20170;-44
2023/01/30 04:13:25;;;;;;;17.70;8.70;;;4.90;99.90;;;;;;5071668;28;20210;-44
2023/01/30 04:15:51;;;;;;;15.75;9.25;;;4.90;99.90;;;;;;5071941;28;20209;-44
2023/01/30 04:18:16;;;;;;;14.57;8.45;;;4.90;99.90;;;;;;5072413;28;20194;-44
2023/01/30 04:20:42;;;;;;;17.70;8.68;;;4.90;99.90;;;;;;5072139;28;20178;-44
2023/01/30 04:23:07;;;;;;;14.63;9.32;;;4.90;99.90;;;;;;5072226;28;20195;-44
2023/01/30 04:25:33;;;;;;;14.30;9.57;;;5.00;99.90;;;;;;5072117;28;20244;-44
2023/01/30 04:27:58;;;;;;;20.02;10.70;;;4.90;99.90;;;;;;5071746;28;20570;-44
2023/01/30 04:30:24;;;;;;;14.15;7.55;;;4.90;99.90;;;;;;5071535;28;20166;-45
2023/01/30 04:32:50;;;;;;;15.68;7.78;;;4.90;99.90;;;;;;5071937;28;20227;-44
2023/01/30 04:35:15;;;;;;;14.60;9.27;;;4.90;99.90;;;;;;5072054;28;20174;-44
2023/01/30 04:37:41;;;;;;;20.20;11.40;;;5.00;99.90;;;;;;5071745;28;20641;-44
2023/01/30 04:40:07;;;;;;;17.08;9.40;;;5.00;99.90;;;;;;5072217;28;20178;-44
2023/01/30 04:42:32;;;;;;;13.75;9.38;;;4.90;99.90;;;;;;5058545;28;20202;-44
2023/01/30 04:44:58;;;;;;;15.38;8.07;;;5.00;99.90;;;;;;5051714;28;20264;-44
2023/01/30 04:47:24;;;;;;;15.20;9.10;;;5.00;99.90;;;;;;5052089;28;20214;-44
2023/01/30 04:49:49;;;;;;;21.17;12.38;;;5.00;99.90;;;;;;5051841;28;20179;-44
2023/01/30 04:52:15;;;;;;;21.55;9.35;;;4.90;99.90;;;;;;5051657;28;20175;-44
2023/01/30 04:54:40;;;;;;;18.27;10.82;;;4.90;99.90;;;;;;5052403;28;20170;-44
2023/01/30 04:57:06;;;;;;;20.52;10.70;;;5.00;99.90;;;;;;5052030;28;20661;-44
2023/01/30 04:59:31;;;;;;;23.17;10.75;;;4.90;99.90;;;;;;5052421;28;20615;-44
2023/01/30 05:01:57;;;;;;;22.67;12.88;;;5.00;99.90;;;;;;5052122;28;20173;-44
2023/01/30 05:04:22;;;;;;;17.30;9.85;;;4.90;99.90;;;;;;5051809;28;20237;-44
2023/01/30 05:06:48;;;;;;;21.15;12.10;;;5.10;99.90;;;;;;5051459;28;20198;-44
2023/01/30 05:09:13;;;;;;;17.02;10.35;;;5.10;99.90;;;;;;5051724;28;20173;-44
2023/01/30 05:11:39;;;;;;;22.38;12.38;;;4.90;99.90;;;;;;5052988;28;20228;-44
2023/01/30 05:14:05;;;;;;;20.48;10.95;;;4.90;99.90;;;;;;5051205;28;20635;-44
2023/01/30 05:16:30;;;;;;;21.38;11.18;;;5.00;99.90;;;;;;5051851;28;20206;-44
2023/01/30 05:18:56;;;;;;;19.05;9.48;;;5.00;99.90;;;;;;5052324;28;20175;-44
2023/01/30 05:21:25;;;;;;;18.17;10.35;;;5.00;99.90;;;;;;5052172;28;20166;-44
2023/01/30 05:23:54;;;;;;;19.35;11.40;;;5.10;99.90;;;;;;5052054;28;20166;-45
2023/01/30 05:26:19;;;;;;;16.75;9.45;;;5.00;99.90;;;;;;5050754;28;20173;-45
2023/01/30 05:28:54;;;;;;;20.90;12.43;;;5.10;99.90;;;;;;5051744;28;20174;-45
2023/01/30 05:31:19;;;;;;;21.15;11.70;;;5.00;99.90;;;;;;5051652;28;20162;-45
2023/01/30 05:33:47;;;;;;;19.65;9.23;;;5.10;99.90;;;;;;5065448;28;20230;-45
2023/01/30 05:36:15;;;;;;;14.15;8.45;;;5.00;99.90;;;;;;5067447;28;20601;-45
2023/01/30 05:38:44;;;;;;;17.45;8.93;;;5.00;99.90;;;;;;5051546;28;20256;-44
2023/01/30 05:41:14;;;;;;;13.55;8.57;;;5.20;99.90;;;;;;5061806;28;20180;-45
2023/01/30 05:43:40;;;;;;;17.67;11.20;;;5.20;99.90;;;;;;5070249;28;20170;-45
2023/01/30 05:46:08;;;;;;;19.77;11.57;;;5.00;99.90;;;;;;5071430;28;20170;-44
2023/01/30 05:48:33;;;;;;;16.33;9.98;;;5.10;99.90;;;;;;5071446;28;20166;-44
2023/01/30 05:50:59;;;;;;;16.35;9.63;;;5.10;99.90;;;;;;5071187;28;20681;-44
2023/01/30 05:53:29;;;;;;;13.35;8.90;;;5.10;99.90;;;;;;5072009;28;20581;-45
2023/01/30 05:56:01;;;;;;;17.90;9.45;;;5.20;99.90;;;;;;5071602;28;20204;-44
2023/01/30 05:58:27;;;;;;;14.63;9.57;;;5.10;99.90;;;;;;5071309;28;20185;-45
2023/01/30 06:00:53;;;;;;;12.98;7.68;;;5.10;99.90;;;;;;5071665;28;20176;-45
2023/01/30 06:03:19;;;;;;;17.95;8.50;;;5.30;99.90;;;;;;5061071;28;20579;-44
2023/01/30 06:05:45;;;;;;;12.90;7.80;;;5.20;99.90;;;;;;5051325;28;20210;-44
2023/01/30 06:08:11;;;;;;;14.02;8.60;;;5.30;99.90;;;;;;5051350;28;20289;-44
2023/01/30 06:10:36;;;;;;;17.25;9.07;;;5.20;99.90;;;;;;5051196;28;20224;-45
2023/01/30 06:13:02;;;;;;;10.40;7.25;;;5.30;99.90;;;;;;5051145;28;20174;-44
2023/01/30 06:15:27;;;;;;;10.73;7.00;;;5.30;99.90;;;;;;5051196;28;20163;-44
2023/01/30 06:17:53;;;;;;;11.32;8.20;;;5.40;99.90;;;;;;5051615;28;20163;-44
2023/01/30 06:20:19;;;;;;;9.75;6.53;;;5.40;99.90;;;;;;5051104;28;20167;-44
2023/01/30 06:22:44;;;;;;;10.65;5.72;;;5.50;99.90;;;;;;5049915;28;20170;-45
2023/01/30 06:25:10;;;;;;;6.50;5.18;;;5.40;99.90;;;;;;5051310;28;20185;-44
2023/01/30 06:27:36;;;;;;;11.40;7.10;;;5.50;99.90;;;;;;5051066;28;20210;-44
2023/01/30 06:30:01;;;;;;;11.95;7.55;;;5.50;99.90;;;;;;5051180;28;20162;-44
2023/01/30 06:32:27;;;;;;;9.93;6.70;;;5.50;99.90;;;;;;5051325;28;20175;-45
2023/01/30 06:34:52;;;;;;;9.68;5.25;;;5.50;99.90;;;;;;5069982;28;20241;-45
2023/01/30 06:37:18;;;;;;;11.70;8.30;;;5.60;99.90;;;;;;5072392;28;20198;-44
2023/01/30 06:39:43;;;;;;;14.75;5.47;;;5.60;99.90;;;;;;5074674;28;20665;-45
2023/01/30 06:42:09;;;;;;;14.38;7.15;;;5.50;99.90;;;;;;5074623;28;20244;-44
2023/01/30 06:44:34;;;;;;;17.02;7.05;;;5.60;99.90;;;;;;5074678;28;20162;-44
2023/01/30 06:47:00;;;;;;;7.75;5.70;;;5.50;99.90;;;;;;5074434;28;20212;-44
2023/01/30 06:49:25;;;;;;;10.15;6.07;;;5.60;99.90;;;;;;5074464;28;20231;-44
2023/01/30 06:51:51;;;;;;;12.85;8.70;;;5.60;99.90;;;;;;5075086;28;20197;-45
2023/01/30 06:54:16;;;;;;;13.07;7.40;;;5.70;99.90;;;;;;5072805;28;20177;-45
2023/01/30 06:56:42;;;;;;;10.65;6.95;;;5.70;99.90;;;;;;5054430;28;20181;-45
2023/01/30 06:59:08;;;;;;;11.63;7.72;;;5.80;99.90;;;;;;5053085;28;20171;-45
2023/01/30 07:01:33;;;;;;;9.85;7.53;;;5.70;99.90;;;;;;5054373;28;20178;-45
2023/01/30 07:03:59;;;;;;;9.25;6.45;;;7.20;99.90;;;;;;5054244;28;20203;-45
2023/01/30 07:06:27;;;;;;;11.25;6.63;;;5.70;99.90;;;;;;5054571;28;20210;-45
2023/01/30 07:08:55;;;;;;;10.13;7.30;;;5.80;99.90;;;;;;5064661;28;20177;-45
2023/01/30 07:11:20;;;;;;;9.02;6.40;;;5.80;99.90;;;;;;5074632;28;20162;-45
2023/01/30 07:13:46;;;;;;;10.75;7.18;;;5.80;99.90;;;;;;5074197;28;20173;-46
2023/01/30 07:16:12;;;;;;;9.50;6.70;;;5.70;99.90;;;;;;5074141;28;20235;-46
2023/01/30 07:18:37;;;;;;;11.38;7.05;;;5.80;99.90;;;;;;5074274;28;20162;-45
2023/01/30 07:21:03;;;;;;;14.48;7.13;;;5.80;99.90;;;;;;5074080;28;20258;-46
2023/01/30 07:23:28;;;;;;;10.25;6.88;;;5.70;99.90;;;;;;5074019;28;20164;-45
2023/01/30 07:25:54;;;;;;;10.70;8.25;;;5.70;99.90;;;;;;5059655;28;20224;-46
2023/01/30 07:28:20;;;;;;;15.30;8.00;;;5.80;99.90;;;;;;5054088;28;20628;-45
2023/01/30 07:30:45;;;;;;;11.48;7.50;;;5.70;99.90;;;;;;5053828;28;20587;-45
2023/01/30 07:33:11;;;;;;;8.20;6.50;;;5.70;99.90;;;;;;5053782;28;20453;-46
2023/01/30 07:35:37;;;;;;;12.88;7.07;;;5.90;99.90;;;;;;5053843;28;20649;-45
2023/01/30 07:38:04;;;;;;;10.88;7.10;;;5.80;99.90;;;;;;5053939;28;20175;-45
2023/01/30 07:40:30;;;;;;;10.30;7.40;;;5.80;99.90;;;;;;5053936;28;20510;-45
2023/01/30 07:43:06;;;;;;;7.88;5.45;;;5.90;99.90;;;;;;5053654;28;20181;-45
2023/01/30 07:45:40;;;;;;;9.73;6.22;;;5.90;99.90;;;;;;5053651;28;20219;-45
2023/01/30 07:48:07;;;;;;;12.82;7.32;;;6.00;99.90;;;;;;5052947;28;20202;-45
2023/01/30 07:50:32;;;;;;;11.25;8.57;;;5.90;99.90;;;;;;5052963;28;20520;-45
2023/01/30 07:52:58;;;;;;;11.10;7.10;;;6.00;99.90;;;;;;5053347;28;20167;-45
2023/01/30 07:55:24;;;;;;;12.48;8.20;;;5.90;99.90;;;;;;5057851;28;20177;-46
2023/01/30 07:57:49;;;;;;;13.60;9.07;;;5.90;99.90;;;;;;5053238;28;20213;-45
2023/01/30 08:00:15;;;;;;;13.55;8.27;;;5.90;99.90;;;;;;5053152;28;20162;-45
2023/01/30 08:02:41;;;;;;;9.65;6.50;;;5.90;99.90;;;;;;5053140;28;20171;-45
2023/01/30 08:05:07;;;;;;;12.57;7.38;;;5.90;99.90;;;;;;5052986;28;20230;-45
2023/01/30 08:07:32;;;;;;;12.63;8.40;;;5.90;99.90;;;;;;5052916;28;20251;-45
2023/01/30 08:09:58;;;;;;;13.55;9.30;;;6.10;99.90;;;;;;5053048;28;20166;-45
2023/01/30 08:12:24;;;;;;;13.57;8.38;;;6.10;99.90;;;;;;5052016;28;20170;-45
2023/01/30 08:14:49;;;;;;;15.63;8.68;;;6.10;99.90;;;;;;5062596;28;20223;-45
2023/01/30 08:17:15;;;;;;;10.75;8.50;;;6.10;99.90;;;;;;5070944;28;20249;-45
2023/01/30 08:19:40;;;;;;;10.77;7.45;;;6.00;99.90;;;;;;5072695;28;20166;-45
2023/01/30 08:22:06;;;;;;;10.95;7.47;;;6.00;99.90;;;;;;5072788;28;20174;-45
2023/01/30 08:24:31;;;;;;;9.70;7.30;;;6.00;99.90;;;;;;5072844;28;20166;-45
2023/01/30 08:26:57;;;;;;;14.48;10.25;;;6.00;99.90;;;;;;5072554;28;20237;-45
2023/01/30 08:29:23;;;;;;;14.27;8.80;;;6.10;99.90;;;;;;5072877;28;20236;-45
2023/01/30 08:31:48;;;;;;;14.73;9.07;;;6.10;99.90;;;;;;5072618;28;20702;-45
2023/01/30 08:34:14;;;;;;;12.80;8.70;;;6.20;99.90;;;;;;5065245;28;20179;-45
2023/01/30 08:36:39;;;;;;;16.45;9.63;;;6.30;99.90;;;;;;5052542;28;20182;-45
2023/01/30 08:39:05;;;;;;;13.20;8.98;;;6.20;99.90;;;;;;5052423;28;20171;-45
2023/01/30 08:41:31;;;;;;;12.25;9.25;;;6.30;99.90;;;;;;5052623;28;20248;-45
2023/01/30 08:43:56;;;;;;;10.10;6.35;;;6.40;99.90;;;;;;5052077;28;20304;-45
2023/01/30 08:46:22;;;;;;;17.35;9.85;;;6.30;99.90;;;;;;5052567;28;20233;-45
2023/01/30 08:48:47;;;;;;;15.95;8.85;;;6.60;99.90;;;;;;5052337;28;20171;-45
2023/01/30 08:51:13;;;;;;;18.92;8.20;;;6.60;99.90;;;;;;5052336;28;20174;-45
2023/01/30 08:53:39;;;;;;;15.20;6.93;;;6.50;99.90;;;;;;5053552;28;20174;-45
2023/01/30 08:56:05;;;;;;;13.25;8.10;;;6.60;99.90;;;;;;5052363;28;20162;-45
2023/01/30 08:58:30;;;;;;;10.02;6.72;;;6.60;99.90;;;;;;5052055;28;20202;-45
2023/01/30 09:00:56;;;;;;;14.57;6.30;;;6.70;99.90;;;;;;5051939;28;20205;-45
2023/01/30 09:03:21;;;;;;;15.38;6.30;;;6.60;99.90;;;;;;5052451;28;20290;-45
2023/01/30 09:05:53;;;;;;;14.05;5.05;;;6.90;99.90;;;;;;5050586;28;20222;-45
2023/01/30 09:08:19;;;;;;;10.18;4.68;;;6.90;99.90;;;;;;5051950;28;20311;-45
2023/01/30 09:10:44;;;;;;;17.95;5.35;;;7.00;99.90;;;;;;5052003;28;21253;-45
2023/01/30 09:13:10;;;;;;;7.40;4.07;;;7.10;99.90;;;;;;5054123;28;20591;-45
2023/01/30 09:15:35;;;;;;;9.18;3.17;;;7.10;99.90;;;;;;5071875;28;20633;-45
2023/01/30 09:18:01;;;;;;;9.10;3.10;;;7.10;99.90;;;;;;5072141;28;20173;-45
2023/01/30 09:20:26;;;;;;;13.80;3.65;;;7.10;99.90;;;;;;5072145;28;20170;-45
2023/01/30 09:22:52;;;;;;;23.13;3.47;;;7.20;99.90;;;;;;5058759;28;20588;-45
2023/01/30 09:25:18;;;;;;;6.55;2.53;;;7.30;99.90;;;;;;5051685;28;20175;-45
2023/01/30 09:27:46;;;;;;;12.45;3.08;;;7.20;99.90;;;;;;5051533;28;20210;-45
2023/01/30 09:30:12;;;;;;;8.65;2.72;;;7.30;99.90;;;;;;5051744;28;20173;-45
2023/01/30 09:32:37;;;;;;;11.75;2.70;;;7.40;99.90;;;;;;5051725;28;20175;-45
2023/01/30 09:35:03;;;;;;;8.73;2.63;;;7.40;99.90;;;;;;5051878;28;20170;-45
2023/01/30 09:37:29;;;;;;;11.77;2.72;;;7.40;99.90;;;;;;5051622;28;20228;-45
2023/01/30 09:39:54;;;;;;;11.25;3.20;;;7.50;99.90;;;;;;5051995;28;20171;-45
2023/01/30 09:42:35;;;;;;;8.65;2.72;;;7.40;99.90;;;;;;5051801;28;20174;-45
2023/01/30 09:45:22;;;;;;;6.47;2.60;;;7.40;99.90;;;;;;5051583;28;20292;-45
2023/01/30 09:48:10;;;;;;;10.80;3.17;;;7.50;99.90;;;;;;5051378;28;20210;-45
2023/01/30 09:51:13;;;;;;;11.32;4.07;;;7.60;99.90;;;;;;5051466;28;20163;-45
2023/01/30 09:53:57;;;;;;;11.73;3.65;;;7.60;99.90;;;;;;5051322;28;20246;-45
2023/01/30 09:56:23;;;;;;;9.52;3.08;;;7.60;99.90;;;;;;5052008;28;20166;-45
2023/01/30 09:58:57;;;;;;;5.90;2.20;;;7.60;99.90;;;;;;5051429;28;20175;-45
2023/01/30 10:01:47;;;;;;;10.00;2.58;;;7.60;99.90;;;;;;5050557;28;20173;-45
2023/01/30 10:04:12;;;;;;;7.88;2.17;;;7.60;99.90;;;;;;5063790;28;20217;-45
2023/01/30 10:06:45;;;;;;;4.50;1.58;;;7.70;99.90;;;;;;5071612;28;20209;-45
2023/01/30 10:09:18;;;;;;;4.95;2.72;;;7.80;99.90;;;;;;5071351;28;20162;-45
2023/01/30 10:11:55;;;;;;;15.77;3.28;;;7.70;99.90;;;;;;5071397;28;20174;-45
2023/01/30 10:14:56;;;;;;;11.05;2.35;;;7.80;99.90;;;;;;5075640;28;20207;-45
2023/01/30 10:17:27;;;;;;;10.38;3.22;;;7.70;99.90;;;;;;5075568;28;20706;-45
2023/01/30 10:20:21;;;;;;;13.35;3.08;;;7.60;99.90;;;;;;5075717;28;20256;-45
2023/01/30 10:23:11;;;;;;;18.27;3.17;;;7.50;99.90;;;;;;5075070;28;20576;-45
2023/01/30 10:25:53;;;;;;;13.15;2.15;;;7.60;99.90;;;;;;5075020;28;20162;-45
2023/01/30 10:28:39;;;;;;;11.55;2.33;;;7.60;99.90;;;;;;5075128;28;20209;-45
2023/01/30 10:31:15;;;;;;;7.97;2.80;;;7.60;99.90;;;;;;5074938;28;20642;-45
2023/01/30 10:34:01;;;;;;;8.75;3.05;;;7.70;99.90;;;;;;5066382;28;20220;-45
2023/01/30 10:36:35;;;;;;;4.72;2.25;;;7.70;99.90;;;;;;5054908;28;20194;-45
2023/01/30 10:39:09;;;;;;;6.50;2.22;;;7.70;99.90;;;;;;5054458;28;20660;-45
2023/01/30 10:41:42;;;;;;;6.88;2.05;;;7.70;99.90;;;;;;5054600;28;20178;-45
2023/01/30 10:44:12;;;;;;;9.60;2.58;;;7.60;99.90;;;;;;5054835;28;20611;-45
2023/01/30 10:46:52;;;;;;;10.93;2.42;;;7.60;99.90;;;;;;5054426;28;20234;-45
2023/01/30 10:49:27;;;;;;;13.90;3.83;;;7.60;99.90;;;;;;5054950;28;20178;-45
2023/01/30 10:52:04;;;;;;;8.00;2.70;;;7.60;99.90;;;;;;5053582;28;20162;-45
2023/01/30 10:54:41;;;;;;;7.10;1.92;;;7.60;99.90;;;;;;5054160;28;20212;-45
2023/01/30 10:57:40;;;;;;;8.32;2.35;;;7.70;99.90;;;;;;5054213;28;20258;-45
2023/01/30 11:00:18;;;;;;;14.88;2.50;;;7.60;99.90;;;;;;5054379;28;20257;-45
2023/01/30 11:03:12;;;;;;;13.90;3.00;;;7.60;99.90;;;;;;5055561;28;20173;-45
2023/01/30 11:05:46;;;;;;;11.15;3.00;;;7.60;99.90;;;;;;5041637;28;20220;-45
2023/01/30 11:08:20;;;;;;;9.68;2.15;;;7.50;99.90;;;;;;5073816;28;20209;-45
2023/01/30 11:10:46;;;;;;;6.25;2.17;;;7.40;99.90;;;;;;5074301;28;20167;-44
2023/01/30 11:13:25;;;;;;;6.70;2.63;;;7.40;99.90;;;;;;5074168;28;20166;-44
2023/01/30 11:15:55;;;;;;;10.05;1.95;;;7.40;99.90;;;;;;5074271;28;20648;-44
2023/01/30 11:18:22;;;;;;;8.77;2.42;;;7.40;99.90;;;;;;5074518;28;20265;-44
2023/01/30 11:21:01;;;;;;;5.88;1.90;;;7.30;99.90;;;;;;5074108;28;20162;-44
2023/01/30 11:23:33;;;;;;;13.02;2.88;;;7.30;99.90;;;;;;5074019;28;20186;-45
2023/01/30 11:26:01;;;;;;;8.63;2.42;;;7.30;99.90;;;;;;5074324;28;20172;-45
2023/01/30 11:28:27;;;;;;;5.28;2.17;;;7.30;99.90;;;;;;5074115;28;20369;-44
2023/01/30 11:30:57;;;;;;;12.57;2.55;;;7.30;99.90;;;;;;5074342;28;20253;-45
2023/01/30 11:33:32;;;;;;;6.43;2.00;;;7.30;99.90;;;;;;5065853;28;20170;-44
2023/01/30 11:36:04;;;;;;;11.75;2.85;;;7.20;99.90;;;;;;5053930;28;20189;-44
2023/01/30 11:38:32;;;;;;;9.57;2.13;;;7.30;99.90;;;;;;5053474;28;20201;-44
2023/01/30 11:41:08;;;;;;;8.95;1.95;;;7.30;99.90;;;;;;5053903;28;20171;-44
2023/01/30 11:43:36;;;;;;;11.13;2.40;;;7.30;99.90;;;;;;5057725;28;20173;-44
2023/01/30 11:46:02;;;;;;;10.50;2.72;;;7.30;99.90;;;;;;5073952;28;20158;-44
2023/01/30 11:48:31;;;;;;;7.78;2.42;;;7.30;99.90;;;;;;5073450;28;20269;-44
2023/01/30 11:51:05;;;;;;;9.00;2.30;;;7.30;99.90;;;;;;5072407;28;20657;-44
2023/01/30 11:53:35;;;;;;;7.07;1.98;;;7.40;99.90;;;;;;5071560;28;20178;-44
2023/01/30 11:56:22;;;;;;;10.05;2.33;;;7.40;99.90;;;;;;5059546;28;20179;-44
2023/01/30 11:58:57;;;;;;;10.55;2.28;;;7.40;99.90;;;;;;5053194;28;20163;-44
2023/01/30 12:01:32;;;;;;;4.68;2.53;;;7.40;99.90;;;;;;5053335;28;20658;-44
2023/01/30 12:03:58;;;;;;;11.07;2.40;;;7.40;99.90;;;;;;5052874;28;20308;-44
2023/01/30 12:06:30;;;;;;;11.18;2.30;;;7.40;99.90;;;;;;5051748;28;20541;-44
2023/01/30 12:08:56;;;;;;;9.95;1.90;;;7.40;99.90;;;;;;5053075;28;20174;-44
2023/01/30 12:11:35;;;;;;;14.77;1.95;;;7.40;99.90;;;;;;5053518;28;20252;-44
2023/01/30 12:14:40;;;;;;;11.75;2.17;;;7.40;99.90;;;;;;5052898;28;20216;-44
2023/01/30 12:17:25;;;;;;;10.93;3.08;;;7.40;99.90;;;;;;5052744;28;20162;-44
2023/01/30 12:20:16;;;;;;;6.28;1.98;;;7.30;99.90;;;;;;5052834;28;20673;-44
2023/01/30 12:23:07;;;;;;;9.50;2.28;;;7.30;99.90;;;;;;5062077;28;20178;-44
2023/01/30 12:26:14;;;;;;;11.18;2.65;;;7.30;99.90;;;;;;5072479;28;20638;-44
2023/01/30 12:28:50;;;;;;;9.65;2.40;;;7.30;99.90;;;;;;5051681;28;20225;-45
2023/01/30 12:31:27;;;;;;;14.05;2.47;;;7.20;99.90;;;;;;5061029;28;20675;-44
2023/01/30 12:33:55;;;;;;;12.05;3.55;;;7.20;99.90;;;;;;5052495;28;20232;-44
2023/01/30 12:36:45;;;;;;;7.95;2.05;;;7.20;99.90;;;;;;5052048;28;20657;-44
2023/01/30 12:39:58;;;;;;;8.20;1.58;;;7.20;99.90;;;;;;5052270;28;20171;-45
2023/01/30 12:42:47;;;;;;;12.65;2.20;;;7.30;99.90;;;;;;4990988;28;20190;-44
2023/01/30 12:45:23;;;;;;;7.70;1.67;;;7.30;99.90;;;;;;5063775;28;20242;-44
2023/01/30 12:48:16;;;;;;;11.38;2.20;;;7.40;99.90;;;;;;5051848;28;20256;-44
2023/01/30 12:50:56;;;;;;;18.05;2.72;;;7.40;99.90;;;;;;5052335;28;20171;-45
2023/01/30 12:53:54;;;;;;;11.38;2.22;;;7.50;99.90;;;;;;5052290;28;20171;-45
2023/01/30 12:56:46;;;;;;;11.45;2.83;;;7.60;99.90;;;;;;5068146;28;20636;-44
2023/01/30 12:59:20;;;;;;;8.80;2.30;;;7.60;99.90;;;;;;5070364;28;20166;-43
2023/01/30 13:02:23;;;;;;;5.63;2.03;;;7.60;99.90;;;;;;5070093;28;20766;-44
2023/01/30 13:05:10;;;;;;;11.10;3.60;;;7.60;99.90;;;;;;5070373;28;20217;-45
2023/01/30 13:07:42;;;;;;;18.63;2.92;;;7.70;99.90;;;;;;5070384;28;20198;-46
2023/01/30 13:10:25;;;;;;;15.20;2.90;;;7.70;99.90;;;;;;5070256;28;20166;-44
2023/01/30 13:13:02;;;;;;;8.27;2.25;;;7.70;99.90;;;;;;5070795;28;20308;-48